KBDL

Bradley International Airport

Windsor Locks, Connecticut, USA
METAR KBDL 151951Z 17006KT 10SM SCT042 BKN055 BKN065 BKN170 31/21 A2992 RMK AO2 LTG DSNT S SLP129 CB DSNT S MOV SE T03060211
Observed Flight Rules
Jul-15 @ 19:51 UTC (an hour ago) Visual Flight Rules
Wind Visibility Clouds
170° at 6 knots 10 miles
  • Scattered at 4,200' AGL
  • Broken at 5,500' AGL
  • Broken at 6,500' AGL
  • Broken at 17,000' AGL
Temperatures Readings
Current 31°C / 88°F
Dewpoint 21°C / 70°F
Humidity 55%
Altimeter 29.92" Hg
Pressure 1012.9 hPa
Elevation 60
METAR KBDL 151951Z 17006KT 10SM SCT042 BKN055 BKN065 BKN170 31/21 A2992 RMK AO2 LTG DSNT S SLP129 CB DSNT S MOV SE T03060211
Observed Flight Rules
Jul-15 @ 19:51 UTC
(an hour ago)
VFR
Wind Visibility
170° at 6 knots 10 miles
Clouds
  • Scattered at 4,200' AGL
  • Broken at 5,500' AGL
  • Broken at 6,500' AGL
  • Broken at 17,000' AGL
Temperature Dewpoint
31°C / 88°F 21°C / 70°F
Humidity Altimeter Pressure
55% 29.92" Hg 1012.9 hPa